createdAt,value
2023-02-05T00:00:05.137Z,103129.31
2023-02-05T00:02:34.562Z,103137.09
2023-02-05T00:05:01.203Z,103133.63
2023-02-05T00:07:27.728Z,103136.28
2023-02-05T00:09:54.245Z,103146.56
2023-02-05T00:12:21.027Z,103152.47
2023-02-05T00:14:47.650Z,103159.06
2023-02-05T00:17:14.161Z,103162.63
2023-02-05T00:19:40.730Z,103164.25
2023-02-05T00:22:07.342Z,103170.44
2023-02-05T00:24:33.912Z,103172.81
2023-02-05T00:27:00.461Z,103185.19
2023-02-05T00:29:27.071Z,103189.53
2023-02-05T00:31:53.675Z,103197.81
2023-02-05T00:34:20.245Z,103206.81
2023-02-05T00:36:46.783Z,103201.63
2023-02-05T00:39:14.290Z,103209.31
2023-02-05T00:41:40.849Z,103216.22
2023-02-05T00:44:07.467Z,103219.84
2023-02-05T00:46:34.014Z,103232.19
2023-02-05T00:49:00.598Z,103240.06
2023-02-05T00:51:27.229Z,103249.09
2023-02-05T00:53:53.750Z,103262.00
2023-02-05T00:56:20.363Z,103260.16
2023-02-05T00:58:49.054Z,103277.38
2023-02-05T01:01:15.976Z,103281.41
2023-02-05T01:03:42.765Z,103289.41
2023-02-05T01:06:09.359Z,103291.13
2023-02-05T01:08:36.028Z,103302.16
2023-02-05T01:11:06.658Z,103304.81
2023-02-05T01:13:33.332Z,103312.81
2023-02-05T01:15:59.892Z,103310.00
2023-02-05T01:18:26.514Z,103312.59
2023-02-05T01:20:53.026Z,103321.22
2023-02-05T01:23:19.713Z,103323.63
2023-02-05T01:25:46.387Z,103341.81
2023-02-05T01:28:13.096Z,103347.81
2023-02-05T01:30:39.787Z,103357.09
2023-02-05T01:33:06.502Z,103364.19
2023-02-05T01:35:33.397Z,103365.00
2023-02-05T01:38:00.051Z,103367.25
2023-02-05T01:40:26.652Z,103377.53
2023-02-05T01:42:53.206Z,103368.13
2023-02-05T01:45:22.870Z,103382.81
2023-02-05T01:47:50.595Z,103380.91
2023-02-05T01:50:19.357Z,103389.38
2023-02-05T01:52:46.183Z,103390.38
2023-02-05T01:55:13.448Z,103394.69
2023-02-05T01:57:40.366Z,103395.56
2023-02-05T02:00:07.490Z,103403.28
2023-02-05T02:02:37.530Z,103409.50
2023-02-05T02:05:09.361Z,103410.47
2023-02-05T02:07:35.885Z,103424.19
2023-02-05T02:10:02.982Z,103424.13
2023-02-05T02:12:32.439Z,103426.94
2023-02-05T02:15:01.572Z,103419.00
2023-02-05T02:17:28.527Z,103418.13
2023-02-05T02:20:08.535Z,103412.25
2023-02-05T02:22:35.067Z,103408.75
2023-02-05T02:25:34.100Z,103416.47
2023-02-05T02:28:16.709Z,103410.06
2023-02-05T02:30:46.034Z,103404.88
2023-02-05T02:33:12.970Z,103417.09
2023-02-05T02:35:42.896Z,103409.97
2023-02-05T02:38:16.917Z,103410.69
2023-02-05T02:40:46.829Z,103407.25
2023-02-05T02:43:24.881Z,103408.91
2023-02-05T02:45:53.699Z,103429.66
2023-02-05T02:48:23.525Z,103435.59
2023-02-05T02:50:52.227Z,103435.47
2023-02-05T02:53:20.699Z,103440.47
2023-02-05T02:55:48.977Z,103446.31
2023-02-05T02:58:18.251Z,103450.28
2023-02-05T03:00:46.035Z,103446.69
2023-02-05T03:03:15.065Z,103458.50
2023-02-05T03:05:42.788Z,103477.41
2023-02-05T03:08:25.044Z,103488.31
2023-02-05T03:11:06.819Z,103484.69
2023-02-05T03:13:33.380Z,103497.56
2023-02-05T03:16:00.601Z,103504.53
2023-02-05T03:18:27.255Z,103491.44
2023-02-05T03:20:56.677Z,103495.03
2023-02-05T03:23:23.653Z,103494.88
2023-02-05T03:25:50.186Z,103500.06
2023-02-05T03:28:16.787Z,103505.19
2023-02-05T03:31:02.164Z,103511.22
2023-02-05T03:33:37.824Z,103511.03
2023-02-05T03:36:10.475Z,103513.69
2023-02-05T03:38:37.032Z,103516.28
2023-02-05T03:41:06.368Z,103515.13
2023-02-05T03:43:45.236Z,103520.25
2023-02-05T03:46:28.773Z,103507.06
2023-02-05T03:49:01.348Z,103508.66
2023-02-05T03:51:34.003Z,103527.69
2023-02-05T03:54:00.522Z,103538.06
2023-02-05T03:56:42.168Z,103544.16
2023-02-05T03:59:09.368Z,103552.06
2023-02-05T04:01:36.385Z,103560.78
2023-02-05T04:04:02.972Z,103557.38
2023-02-05T04:06:29.554Z,103546.28
2023-02-05T04:08:56.073Z,103553.25
2023-02-05T04:11:22.615Z,103563.41
2023-02-05T04:13:49.253Z,103557.44
2023-02-05T04:16:15.851Z,103563.41
2023-02-05T04:18:42.468Z,103571.19
2023-02-05T04:21:09.026Z,103560.78
2023-02-05T04:23:35.547Z,103564.13
2023-02-05T04:26:02.152Z,103565.06
2023-02-05T04:28:28.687Z,103577.28
2023-02-05T04:30:55.266Z,103573.91
2023-02-05T04:33:21.913Z,103574.09
2023-02-05T04:35:48.480Z,103573.13
2023-02-05T04:38:15.045Z,103581.97
2023-02-05T04:40:41.614Z,103588.78
2023-02-05T04:43:08.175Z,103588.78
2023-02-05T04:45:35.934Z,103595.69
2023-02-05T04:48:02.715Z,103603.19
2023-02-05T04:50:29.337Z,103606.63
2023-02-05T04:52:56.094Z,103617.22
2023-02-05T04:55:22.709Z,103623.22
2023-02-05T04:57:51.290Z,103627.75
2023-02-05T05:00:19.127Z,103638.06
2023-02-05T05:02:45.798Z,103636.28
2023-02-05T05:05:12.391Z,103638.91
2023-02-05T05:07:39.371Z,103651.78
2023-02-05T05:10:07.365Z,103652.72
2023-02-05T05:12:34.730Z,103650.00
2023-02-05T05:15:01.489Z,103645.69
2023-02-05T05:17:28.439Z,103656.09
2023-02-05T05:19:55.042Z,103653.38
2023-02-05T05:22:21.583Z,103646.81
2023-02-05T05:24:48.216Z,103649.81
2023-02-05T05:27:14.754Z,103650.97
2023-02-05T05:29:41.304Z,103649.38
2023-02-05T05:32:07.882Z,103650.09
2023-02-05T05:34:34.429Z,103657.13
2023-02-05T05:37:01.066Z,103659.00
2023-02-05T05:39:46.012Z,103671.22
2023-02-05T05:42:30.948Z,103680.66
2023-02-05T05:44:57.573Z,103683.47
2023-02-05T05:47:24.488Z,103690.72
2023-02-05T05:49:51.093Z,103706.44
2023-02-05T05:52:17.717Z,103717.03
2023-02-05T05:54:44.346Z,103725.00
2023-02-05T05:57:10.930Z,103730.28
2023-02-05T05:59:37.572Z,103738.25
2023-02-05T06:02:04.443Z,103744.41
2023-02-05T06:04:31.293Z,103742.16
2023-02-05T06:06:58.282Z,103729.34
2023-02-05T06:09:25.164Z,103723.41
2023-02-05T06:11:51.758Z,103718.34
2023-02-05T06:14:18.353Z,103719.09
2023-02-05T06:16:44.929Z,103719.94
2023-02-05T06:19:11.499Z,103717.44
2023-02-05T06:21:38.035Z,103714.00
2023-02-05T06:24:04.700Z,103718.72
2023-02-05T06:26:31.268Z,103721.41
2023-02-05T06:29:03.255Z,103717.09
2023-02-05T06:31:30.835Z,103708.66
2023-02-05T06:33:57.520Z,103694.97
2023-02-05T06:36:24.195Z,103699.63
2023-02-05T06:38:50.845Z,103690.88
2023-02-05T06:41:17.389Z,103685.38
2023-02-05T06:43:44.048Z,103685.84
2023-02-05T06:46:10.734Z,103696.03
2023-02-05T06:48:37.327Z,103704.47
2023-02-05T06:51:04.029Z,103688.66
2023-02-05T06:53:30.574Z,103673.91
2023-02-05T06:56:00.372Z,103681.47
2023-02-05T06:58:27.069Z,103683.13
2023-02-05T07:00:53.646Z,103695.94
2023-02-05T07:03:20.294Z,103695.00
2023-02-05T07:05:46.854Z,103700.06
2023-02-05T07:08:13.415Z,103707.72
2023-02-05T07:10:40.040Z,103705.19
2023-02-05T07:13:06.548Z,103693.22
2023-02-05T07:15:35.572Z,103697.47
2023-02-05T07:18:02.456Z,103695.00
2023-02-05T07:20:29.101Z,103697.66
2023-02-05T07:22:55.663Z,103703.66
2023-02-05T07:25:22.295Z,103708.50
2023-02-05T07:27:48.873Z,103707.03
2023-02-05T07:30:15.703Z,103703.53
2023-02-05T07:32:45.081Z,103701.94
2023-02-05T07:35:14.496Z,103707.03
2023-02-05T07:37:41.016Z,103701.06
2023-02-05T07:40:07.937Z,103687.06
2023-02-05T07:42:34.508Z,103680.88
2023-02-05T07:45:01.064Z,103672.03
2023-02-05T07:47:27.635Z,103679.66
2023-02-05T07:49:54.166Z,103666.63
2023-02-05T07:52:20.804Z,103661.25
2023-02-05T07:54:47.512Z,103661.03
2023-02-05T07:57:14.096Z,103655.59
2023-02-05T07:59:40.634Z,103652.13
2023-02-05T08:02:07.607Z,103660.13
2023-02-05T08:04:34.170Z,103658.91
2023-02-05T08:07:00.815Z,103667.81
2023-02-05T08:09:27.488Z,103665.97
2023-02-05T08:11:54.100Z,103640.28
2023-02-05T08:14:20.623Z,103628.34
2023-02-05T08:16:47.271Z,103637.81
2023-02-05T08:19:15.353Z,103640.72
2023-02-05T08:21:42.243Z,103634.75
2023-02-05T08:24:09.085Z,103643.59
2023-02-05T08:26:35.608Z,103663.63
2023-02-05T08:29:02.416Z,103658.38
2023-02-05T08:31:29.064Z,103655.84
2023-02-05T08:33:56.717Z,103657.59
2023-02-05T08:36:23.267Z,103648.88
2023-02-05T08:38:49.890Z,103648.19
2023-02-05T08:41:16.592Z,103644.78
2023-02-05T08:43:44.389Z,103649.97
2023-02-05T08:46:11.701Z,103648.72
2023-02-05T08:48:38.513Z,103645.84
2023-02-05T08:51:05.189Z,103643.19
2023-02-05T08:53:32.927Z,103643.00
2023-02-05T08:56:00.301Z,103638.66
2023-02-05T08:58:27.583Z,103644.66
2023-02-05T09:01:00.168Z,103636.22
2023-02-05T09:03:32.881Z,103633.09
2023-02-05T09:06:02.962Z,103630.34
2023-02-05T09:14:09.701Z,103630.69
2023-02-05T09:22:19.234Z,103632.94
2023-02-05T09:24:56.514Z,103644.75
2023-02-05T09:30:31.756Z,103636.41
2023-02-05T09:33:32.347Z,103621.91
2023-02-05T09:36:12.725Z,103628.97
2023-02-05T09:39:34.555Z,103633.53
2023-02-05T09:42:27.972Z,103636.81
2023-02-05T09:45:15.576Z,103630.41
2023-02-05T09:48:29.974Z,103624.69
2023-02-05T09:51:00.290Z,103621.88
2023-02-05T09:53:45.896Z,103629.63
2023-02-05T09:56:21.558Z,103639.50
2023-02-05T09:59:09.580Z,103624.84
2023-02-05T10:01:50.948Z,103632.97
2023-02-05T10:04:17.782Z,103638.28
2023-02-05T10:06:56.594Z,103635.22
2023-02-05T10:09:57.131Z,103624.88
2023-02-05T10:12:45.523Z,103640.91
2023-02-05T10:15:15.188Z,103643.78
2023-02-05T10:17:49.026Z,103657.53
2023-02-05T10:20:22.799Z,103659.44
2023-02-05T10:22:55.209Z,103668.09
2023-02-05T10:26:07.928Z,103659.84
2023-02-05T10:28:56.431Z,103654.03
2023-02-05T10:31:52.312Z,103649.97
2023-02-05T10:34:28.040Z,103658.06
2023-02-05T10:36:54.645Z,103666.94
2023-02-05T10:39:30.779Z,103671.28
2023-02-05T10:42:18.026Z,103662.84
2023-02-05T10:44:49.172Z,103653.25
2023-02-05T10:47:21.737Z,103638.50
2023-02-05T10:53:47.132Z,103637.13
2023-02-05T10:56:33.953Z,103646.69
2023-02-05T10:59:01.533Z,103640.97
2023-02-05T11:01:36.785Z,103631.59
2023-02-05T11:04:07.627Z,103636.38
2023-02-05T11:10:20.786Z,103624.69
2023-02-05T11:12:59.863Z,103621.44
2023-02-05T11:15:31.109Z,103617.97
2023-02-05T11:18:05.024Z,103616.34
2023-02-05T11:20:42.783Z,103619.75
2023-02-05T11:23:20.125Z,103604.19
2023-02-05T11:26:08.304Z,103590.28
2023-02-05T11:28:44.583Z,103602.56
2023-02-05T11:31:20.823Z,103598.13
2023-02-05T11:33:54.040Z,103583.25
2023-02-05T11:36:24.555Z,103584.00
2023-02-05T11:48:26.582Z,103545.84
2023-02-05T11:53:38.303Z,103541.34
2023-02-05T11:56:35.809Z,103531.22
2023-02-05T12:01:45.133Z,103504.91
2023-02-05T12:04:11.691Z,103518.38
2023-02-05T12:06:44.403Z,103537.53
2023-02-05T12:09:14.618Z,103536.66
2023-02-05T12:12:04.345Z,103530.34
2023-02-05T12:14:36.069Z,103488.25
2023-02-05T12:17:02.589Z,103518.09
2023-02-05T12:19:37.938Z,103517.84
2023-02-05T12:22:14.161Z,103512.59
2023-02-05T12:24:59.402Z,103509.63
2023-02-05T12:27:32.052Z,103511.72
2023-02-05T12:30:01.613Z,103516.31
2023-02-05T12:32:34.512Z,103511.25
2023-02-05T12:35:14.565Z,103520.69
2023-02-05T12:37:47.335Z,103524.16
2023-02-05T12:40:28.544Z,103518.09
2023-02-05T12:43:02.826Z,103513.78
2023-02-05T12:45:55.714Z,103504.72
2023-02-05T12:48:25.410Z,103483.53
2023-02-05T12:51:10.520Z,103474.00
2023-02-05T12:53:42.814Z,103456.00
2023-02-05T12:59:07.137Z,103446.94
2023-02-05T13:01:52.458Z,103443.53
2023-02-05T13:04:39.453Z,103455.06
2023-02-05T13:07:25.111Z,103465.47
2023-02-05T13:09:56.682Z,103452.00
2023-02-05T13:12:26.384Z,103453.38
2023-02-05T13:14:52.877Z,103454.31
2023-02-05T13:17:25.213Z,103467.53
2023-02-05T13:19:58.452Z,103462.78
2023-02-05T13:22:49.020Z,103460.44
2023-02-05T13:29:12.155Z,103465.47
2023-02-05T13:32:15.915Z,103454.13
2023-02-05T13:55:41.138Z,103378.41
2023-02-05T13:58:25.980Z,103421.38
2023-02-05T14:01:01.619Z,103419.97
2023-02-05T14:03:39.465Z,103425.81
2023-02-05T14:06:14.195Z,103440.38
2023-02-05T14:08:40.847Z,103431.84
2023-02-05T14:11:07.764Z,103436.00
2023-02-05T14:13:35.880Z,103434.44
2023-02-05T14:16:21.514Z,103439.47
2023-02-05T14:18:49.642Z,103435.38
2023-02-05T14:21:31.295Z,103422.41
2023-02-05T14:24:03.727Z,103417.66
2023-02-05T14:26:49.037Z,103412.34
2023-02-05T14:29:34.282Z,103394.19
2023-02-05T14:32:00.917Z,103392.53
2023-02-05T14:34:33.224Z,103381.16
2023-02-05T14:36:59.876Z,103368.03
2023-02-05T14:39:30.461Z,103377.66
2023-02-05T14:41:59.625Z,103369.75
2023-02-05T14:44:26.304Z,103375.75
2023-02-05T14:46:55.893Z,103375.91
2023-02-05T14:49:24.634Z,103373.09
2023-02-05T14:52:00.570Z,103373.06
2023-02-05T14:54:32.464Z,103372.47
2023-02-05T14:57:11.356Z,103366.81
2023-02-05T14:59:46.319Z,103369.44
2023-02-05T15:02:31.663Z,103359.09
2023-02-05T15:04:58.535Z,103360.81
2023-02-05T15:07:27.653Z,103361.00
2023-02-05T15:10:00.168Z,103348.81
2023-02-05T15:12:48.886Z,103371.25
2023-02-05T15:15:35.872Z,103366.13
2023-02-05T15:18:05.537Z,103359.22
2023-02-05T15:20:34.031Z,103368.84
2023-02-05T15:23:00.510Z,103363.69
2023-02-05T15:25:37.174Z,103359.34
2023-02-05T15:28:24.037Z,103346.91
2023-02-05T15:30:58.028Z,103353.00
2023-02-05T15:33:29.875Z,103345.31
2023-02-05T15:35:57.065Z,103342.75
2023-02-05T15:38:26.708Z,103350.59
2023-02-05T15:40:53.903Z,103346.25
2023-02-05T15:43:24.696Z,103339.13
2023-02-05T15:45:52.197Z,103338.31
2023-02-05T15:48:29.829Z,103341.75
2023-02-05T15:50:59.390Z,103341.69
2023-02-05T15:53:36.988Z,103338.06
2023-02-05T15:56:08.549Z,103331.91
2023-02-05T15:58:35.133Z,103338.66
2023-02-05T16:01:01.695Z,103336.00
2023-02-05T16:03:33.594Z,103326.44
2023-02-05T16:06:00.213Z,103340.22
2023-02-05T16:08:29.761Z,103344.53
2023-02-05T16:10:58.261Z,103355.00
2023-02-05T16:13:28.705Z,103360.22
2023-02-05T16:16:04.418Z,103348.84
2023-02-05T16:18:40.892Z,103350.75
2023-02-05T16:21:22.520Z,103349.75
2023-02-05T16:23:57.252Z,103346.03
2023-02-05T16:26:28.167Z,103332.81
2023-02-05T16:28:57.504Z,103327.81
2023-02-05T16:31:25.177Z,103320.00
2023-02-05T16:33:58.058Z,103317.38
2023-02-05T16:36:26.182Z,103315.63
2023-02-05T16:38:54.260Z,103311.31
2023-02-05T16:41:23.744Z,103295.91
2023-02-05T16:43:54.535Z,103298.72
2023-02-05T16:46:21.620Z,103299.94
2023-02-05T16:48:52.299Z,103307.84
2023-02-05T16:51:28.011Z,103298.97
2023-02-05T16:53:54.658Z,103293.97
2023-02-05T16:56:23.742Z,103291.41
2023-02-05T16:58:52.875Z,103280.84
2023-02-05T17:01:39.269Z,103285.97
2023-02-05T17:04:06.306Z,103284.06
2023-02-05T17:06:34.183Z,103289.16
2023-02-05T17:09:01.106Z,103289.94
2023-02-05T17:11:32.743Z,103295.13
2023-02-05T17:14:22.645Z,103308.25
2023-02-05T17:17:01.461Z,103314.59
2023-02-05T17:19:31.182Z,103306.84
2023-02-05T17:22:16.236Z,103308.69
2023-02-05T17:24:43.604Z,103315.53
2023-02-05T17:27:23.286Z,103306.16
2023-02-05T17:29:49.916Z,103312.28
2023-02-05T17:32:18.062Z,103318.47
2023-02-05T17:34:44.870Z,103322.75
2023-02-05T17:37:11.828Z,103323.72
2023-02-05T17:39:38.585Z,103332.19
2023-02-05T17:42:07.618Z,103315.50
2023-02-05T17:44:35.259Z,103312.25
2023-02-05T17:47:02.406Z,103320.22
2023-02-05T17:49:29.284Z,103313.94
2023-02-05T17:51:55.992Z,103314.13
2023-02-05T17:54:23.590Z,103322.94
2023-02-05T17:56:51.241Z,103318.50
2023-02-05T17:59:19.103Z,103320.25
2023-02-05T18:01:46.498Z,103325.28
2023-02-05T18:04:13.377Z,103320.19
2023-02-05T18:06:40.474Z,103322.88
2023-02-05T18:09:07.473Z,103312.59
2023-02-05T18:11:34.159Z,103309.94
2023-02-05T18:14:01.019Z,103309.88
2023-02-05T18:16:28.046Z,103305.50
2023-02-05T18:18:54.656Z,103314.13
2023-02-05T18:21:21.966Z,103304.50
2023-02-05T18:23:52.928Z,103314.06
2023-02-05T18:26:20.310Z,103302.66
2023-02-05T18:28:47.022Z,103290.38
2023-02-05T18:31:15.021Z,103284.03
2023-02-05T18:33:42.361Z,103280.75
2023-02-05T18:36:11.099Z,103283.06
2023-02-05T18:38:38.372Z,103274.66
2023-02-05T18:41:04.917Z,103280.75
2023-02-05T18:43:31.525Z,103276.50
2023-02-05T18:45:58.141Z,103273.00
2023-02-05T18:48:24.721Z,103269.44
2023-02-05T18:50:51.242Z,103254.59
2023-02-05T18:53:17.799Z,103252.84
2023-02-05T18:55:44.348Z,103244.31
2023-02-05T18:58:10.906Z,103248.53
2023-02-05T19:00:37.550Z,103247.84
2023-02-05T19:03:04.243Z,103242.50
2023-02-05T19:05:30.778Z,103241.78
2023-02-05T19:07:58.950Z,103235.56
2023-02-05T19:10:25.540Z,103237.31
2023-02-05T19:12:52.060Z,103218.34
2023-02-05T19:15:18.667Z,103211.44
2023-02-05T19:17:48.307Z,103213.16
2023-02-05T19:20:20.419Z,103214.06
2023-02-05T19:22:54.223Z,103213.97
2023-02-05T19:25:27.033Z,103204.47
2023-02-05T19:34:08.142Z,103197.50
2023-02-05T19:36:35.038Z,103199.19
2023-02-05T19:39:03.351Z,103193.22
2023-02-05T19:41:35.939Z,103193.16
2023-02-05T19:44:06.301Z,103196.44
2023-02-05T19:46:35.821Z,103208.63
2023-02-05T19:49:11.668Z,103187.72
2023-02-05T19:51:38.644Z,103175.28
2023-02-05T19:54:08.859Z,103170.34
2023-02-05T19:56:38.773Z,103166.78
2023-02-05T19:59:06.383Z,103165.09
2023-02-05T20:01:38.253Z,103152.03
2023-02-05T20:04:10.587Z,103137.19
2023-02-05T20:06:37.832Z,103117.13
2023-02-05T20:09:12.813Z,103122.44
2023-02-05T20:11:43.701Z,103118.81
2023-02-05T20:14:11.087Z,103102.41
2023-02-05T20:16:40.714Z,103107.84
2023-02-05T20:19:13.067Z,103095.81
2023-02-05T20:21:49.620Z,103088.75
2023-02-05T20:24:18.873Z,103070.66
2023-02-05T20:26:53.603Z,103048.78
2023-02-05T20:29:38.749Z,103069.06
2023-02-05T20:32:05.802Z,103063.72
2023-02-05T20:34:36.341Z,103075.22
2023-02-05T20:37:09.265Z,103082.97
2023-02-05T20:39:39.740Z,103094.38
2023-02-05T20:42:06.338Z,103101.16
2023-02-05T20:44:36.580Z,103140.53
2023-02-05T20:47:07.397Z,103151.09
2023-02-05T20:49:37.566Z,103164.03
2023-02-05T20:52:07.431Z,103168.28
2023-02-05T20:54:37.320Z,103182.91
2023-02-05T20:57:03.971Z,103183.78
2023-02-05T20:59:32.782Z,103177.69
2023-02-05T21:01:59.519Z,103120.38
2023-02-05T21:04:28.548Z,103180.72
2023-02-05T21:06:55.184Z,103180.69
2023-02-05T21:09:22.021Z,103183.19
2023-02-05T21:11:50.151Z,103180.44
2023-02-05T21:14:16.708Z,103171.44
2023-02-05T21:16:43.313Z,103159.63
2023-02-05T21:19:11.016Z,103141.09
2023-02-05T21:21:46.628Z,103151.09
2023-02-05T21:24:14.039Z,103147.72
2023-02-05T21:26:42.160Z,103146.81
2023-02-05T21:29:13.430Z,103137.31
2023-02-05T21:31:41.914Z,103124.22
2023-02-05T21:34:09.363Z,103124.97
2023-02-05T21:36:36.147Z,103132.78
2023-02-05T21:39:03.182Z,103133.63
2023-02-05T21:41:29.774Z,103142.28
2023-02-05T21:43:59.538Z,103140.66
2023-02-05T21:46:27.157Z,103149.34
2023-02-05T21:48:55.551Z,103144.09
2023-02-05T21:51:23.659Z,103154.53
2023-02-05T21:53:57.327Z,103158.94
2023-02-05T21:56:25.098Z,103146.47
2023-02-05T21:58:51.692Z,103131.47
2023-02-05T22:01:22.706Z,103130.50
2023-02-05T22:03:53.841Z,103133.91
2023-02-05T22:06:21.068Z,103128.59
2023-02-05T22:08:50.658Z,103136.38
2023-02-05T22:11:18.316Z,103135.44
2023-02-05T22:13:45.707Z,103135.34
2023-02-05T22:16:14.040Z,103127.28
2023-02-05T22:18:41.008Z,103117.41
2023-02-05T22:21:18.573Z,103111.09
2023-02-05T22:23:48.933Z,103116.06
2023-02-05T22:26:16.696Z,103114.94
2023-02-05T22:28:44.966Z,103104.28
2023-02-05T22:31:12.752Z,103117.22
2023-02-05T22:33:40.595Z,103117.22
2023-02-05T22:36:08.120Z,103088.19
2023-02-05T22:38:35.797Z,103123.34
2023-02-05T22:41:06.963Z,103114.03
2023-02-05T22:43:33.582Z,103114.09
2023-02-05T22:46:04.451Z,103106.84
2023-02-05T22:48:31.028Z,103111.88
2023-02-05T22:51:01.885Z,103106.50
2023-02-05T22:53:28.404Z,103111.41
2023-02-05T22:55:54.939Z,103108.84
2023-02-05T22:58:21.612Z,103108.72
2023-02-05T23:00:48.136Z,103098.34
2023-02-05T23:03:14.868Z,103096.44
2023-02-05T23:05:42.242Z,103092.97
2023-02-05T23:08:08.836Z,103087.66
2023-02-05T23:10:35.451Z,103083.16
2023-02-05T23:13:01.990Z,103064.88
2023-02-05T23:15:28.541Z,103068.19
2023-02-05T23:17:55.058Z,103060.16
2023-02-05T23:20:21.709Z,103068.91
2023-02-05T23:22:48.308Z,103065.41
2023-02-05T23:25:14.888Z,103075.78
2023-02-05T23:27:41.609Z,103084.47
2023-02-05T23:30:11.052Z,103090.47
2023-02-05T23:32:38.008Z,103092.78
2023-02-05T23:35:04.967Z,103095.19
2023-02-05T23:37:32.077Z,103093.41
2023-02-05T23:39:58.612Z,103089.09
2023-02-05T23:42:25.249Z,103085.31
2023-02-05T23:44:51.790Z,103079.34
2023-02-05T23:47:18.402Z,103085.53
2023-02-05T23:49:44.992Z,103088.00
2023-02-05T23:52:11.577Z,103096.53
2023-02-05T23:54:38.121Z,103084.16
2023-02-05T23:57:04.628Z,103079.75
2023-02-05T23:59:31.231Z,103087.53
